Picher, Oklahoma
Current Conditions -  °F | °C
As of 8:53 PM on Wednesday 22 Oct 2014 (Local Time) from KJLN Reporting Station
Clear Clear  
Wind Chill: 62°   Ceiling: Unl
Heat Index: 62°   Visibility: 10mi
Dew Point: 53°   Wind: 8mph
Humidity: 72%   Direction: 130°SE
Pressure: 30.13"   Gusts: NA
Location:  36.99°N, 94.83°W
Report Text: KJLN 230153Z 13007KT 10SM CLR 17/12 A3013 RMK AO2 SLP200 T01670117
Loading
Personal Weather Stations






























Interactive Weather Map
Tropical Storm Tracking
New forecast layout! Learn more

10-Day Weather Forecast

Advertisements
Track Severe Weather on mobile